sensor_id;sensor_type;location;lat;lon;timestamp;temperature;humidity
17296;DHT22;8766;51.480;6.872;2023-04-03T00:01:46;4.90;77.20
17296;DHT22;8766;51.480;6.872;2023-04-03T00:04:13;4.80;77.20
17296;DHT22;8766;51.480;6.872;2023-04-03T00:06:40;4.80;77.20
17296;DHT22;8766;51.480;6.872;2023-04-03T00:09:07;4.80;77.20
17296;DHT22;8766;51.480;6.872;2023-04-03T00:11:35;4.80;77.30
17296;DHT22;8766;51.480;6.872;2023-04-03T00:14:02;4.80;77.40
17296;DHT22;8766;51.480;6.872;2023-04-03T00:16:29;4.70;77.30
17296;DHT22;8766;51.480;6.872;2023-04-03T00:18:55;4.70;77.30
17296;DHT22;8766;51.480;6.872;2023-04-03T00:21:22;4.70;77.30
17296;DHT22;8766;51.480;6.872;2023-04-03T00:23:49;4.70;77.30
17296;DHT22;8766;51.480;6.872;2023-04-03T00:26:16;4.60;77.20
17296;DHT22;8766;51.480;6.872;2023-04-03T00:28:44;4.60;77.30
17296;DHT22;8766;51.480;6.872;2023-04-03T00:31:14;4.60;77.40
17296;DHT22;8766;51.480;6.872;2023-04-03T00:33:41;4.60;77.50
17296;DHT22;8766;51.480;6.872;2023-04-03T00:36:08;4.60;77.50
17296;DHT22;8766;51.480;6.872;2023-04-03T00:38:35;4.50;77.30
17296;DHT22;8766;51.480;6.872;2023-04-03T00:41:02;4.50;77.30
17296;DHT22;8766;51.480;6.872;2023-04-03T00:43:29;4.50;77.40
17296;DHT22;8766;51.480;6.872;2023-04-03T00:45:58;4.50;77.40
17296;DHT22;8766;51.480;6.872;2023-04-03T00:48:28;4.50;77.40
17296;DHT22;8766;51.480;6.872;2023-04-03T00:50:56;4.50;77.50
17296;DHT22;8766;51.480;6.872;2023-04-03T00:53:25;4.40;77.50
17296;DHT22;8766;51.480;6.872;2023-04-03T00:55:54;4.40;77.50
17296;DHT22;8766;51.480;6.872;2023-04-03T00:58:26;4.40;77.50
17296;DHT22;8766;51.480;6.872;2023-04-03T01:00:59;4.30;77.50
17296;DHT22;8766;51.480;6.872;2023-04-03T01:03:30;4.40;78.20
17296;DHT22;8766;51.480;6.872;2023-04-03T01:05:57;4.30;77.50
17296;DHT22;8766;51.480;6.872;2023-04-03T01:08:24;4.30;77.50
17296;DHT22;8766;51.480;6.872;2023-04-03T01:10:51;4.30;77.60
17296;DHT22;8766;51.480;6.872;2023-04-03T01:13:22;4.30;77.80
17296;DHT22;8766;51.480;6.872;2023-04-03T01:15:49;4.30;77.70
17296;DHT22;8766;51.480;6.872;2023-04-03T01:18:17;4.30;77.70
17296;DHT22;8766;51.480;6.872;2023-04-03T01:24:18;4.30;77.80
17296;DHT22;8766;51.480;6.872;2023-04-03T01:26:48;4.30;77.80
17296;DHT22;8766;51.480;6.872;2023-04-03T01:29:15;4.40;77.80
17296;DHT22;8766;51.480;6.872;2023-04-03T01:31:50;4.40;77.80
17296;DHT22;8766;51.480;6.872;2023-04-03T01:34:18;4.40;77.80
17296;DHT22;8766;51.480;6.872;2023-04-03T01:36:44;4.40;77.70
17296;DHT22;8766;51.480;6.872;2023-04-03T01:39:12;4.40;77.70
17296;DHT22;8766;51.480;6.872;2023-04-03T01:41:39;4.40;77.70
17296;DHT22;8766;51.480;6.872;2023-04-03T01:44:06;4.40;77.70
17296;DHT22;8766;51.480;6.872;2023-04-03T01:46:33;4.40;77.70
17296;DHT22;8766;51.480;6.872;2023-04-03T01:49:01;4.40;77.70
17296;DHT22;8766;51.480;6.872;2023-04-03T01:51:28;4.40;77.70
17296;DHT22;8766;51.480;6.872;2023-04-03T01:53:55;4.40;77.60
17296;DHT22;8766;51.480;6.872;2023-04-03T01:56:22;4.40;77.70
17296;DHT22;8766;51.480;6.872;2023-04-03T01:58:49;4.40;77.70
17296;DHT22;8766;51.480;6.872;2023-04-03T02:01:16;4.40;77.70
17296;DHT22;8766;51.480;6.872;2023-04-03T02:03:43;4.30;77.60
17296;DHT22;8766;51.480;6.872;2023-04-03T02:06:11;4.30;77.60
17296;DHT22;8766;51.480;6.872;2023-04-03T02:08:38;4.30;77.70
17296;DHT22;8766;51.480;6.872;2023-04-03T02:11:05;4.30;77.70
17296;DHT22;8766;51.480;6.872;2023-04-03T02:13:32;4.30;77.80
17296;DHT22;8766;51.480;6.872;2023-04-03T02:16:06;4.30;77.80
17296;DHT22;8766;51.480;6.872;2023-04-03T02:18:33;4.30;77.80
17296;DHT22;8766;51.480;6.872;2023-04-03T02:21:00;4.30;77.80
17296;DHT22;8766;51.480;6.872;2023-04-03T02:23:28;4.30;77.80
17296;DHT22;8766;51.480;6.872;2023-04-03T02:26:03;4.30;77.80
17296;DHT22;8766;51.480;6.872;2023-04-03T02:28:30;4.30;77.80
17296;DHT22;8766;51.480;6.872;2023-04-03T02:30:57;4.30;77.80
17296;DHT22;8766;51.480;6.872;2023-04-03T02:33:24;4.20;77.70
17296;DHT22;8766;51.480;6.872;2023-04-03T02:35:53;4.20;77.70
17296;DHT22;8766;51.480;6.872;2023-04-03T02:38:20;4.20;77.80
17296;DHT22;8766;51.480;6.872;2023-04-03T02:40:48;4.20;77.80
17296;DHT22;8766;51.480;6.872;2023-04-03T02:43:15;4.20;77.80
17296;DHT22;8766;51.480;6.872;2023-04-03T02:45:42;4.20;77.90
17296;DHT22;8766;51.480;6.872;2023-04-03T02:48:09;4.20;77.90
17296;DHT22;8766;51.480;6.872;2023-04-03T02:50:36;4.20;77.90
17296;DHT22;8766;51.480;6.872;2023-04-03T02:53:03;4.20;77.90
17296;DHT22;8766;51.480;6.872;2023-04-03T02:55:30;4.20;78.00
17296;DHT22;8766;51.480;6.872;2023-04-03T02:57:58;4.10;77.90
17296;DHT22;8766;51.480;6.872;2023-04-03T03:00:25;4.20;78.00
17296;DHT22;8766;51.480;6.872;2023-04-03T03:02:52;4.10;77.80
17296;DHT22;8766;51.480;6.872;2023-04-03T03:05:19;4.10;77.80
17296;DHT22;8766;51.480;6.872;2023-04-03T03:07:46;4.20;77.90
17296;DHT22;8766;51.480;6.872;2023-04-03T03:10:13;4.10;77.80
17296;DHT22;8766;51.480;6.872;2023-04-03T03:12:40;4.10;77.80
17296;DHT22;8766;51.480;6.872;2023-04-03T03:15:09;4.10;77.90
17296;DHT22;8766;51.480;6.872;2023-04-03T03:17:36;4.10;77.90
17296;DHT22;8766;51.480;6.872;2023-04-03T03:20:03;4.00;77.90
17296;DHT22;8766;51.480;6.872;2023-04-03T03:22:30;4.00;78.00
17296;DHT22;8766;51.480;6.872;2023-04-03T03:24:57;4.10;78.00
17296;DHT22;8766;51.480;6.872;2023-04-03T03:27:24;4.00;78.00
17296;DHT22;8766;51.480;6.872;2023-04-03T03:29:51;4.00;78.00
17296;DHT22;8766;51.480;6.872;2023-04-03T03:32:19;4.00;78.00
17296;DHT22;8766;51.480;6.872;2023-04-03T03:34:46;4.00;78.00
17296;DHT22;8766;51.480;6.872;2023-04-03T03:37:13;4.00;78.10
17296;DHT22;8766;51.480;6.872;2023-04-03T03:39:40;4.00;78.00
17296;DHT22;8766;51.480;6.872;2023-04-03T03:42:07;4.00;78.00
17296;DHT22;8766;51.480;6.872;2023-04-03T03:44:34;4.00;78.10
17296;DHT22;8766;51.480;6.872;2023-04-03T03:47:00;4.00;78.00
17296;DHT22;8766;51.480;6.872;2023-04-03T03:49:29;4.00;78.00
17296;DHT22;8766;51.480;6.872;2023-04-03T03:51:56;4.00;78.00
17296;DHT22;8766;51.480;6.872;2023-04-03T03:54:23;3.90;78.00
17296;DHT22;8766;51.480;6.872;2023-04-03T03:56:50;3.90;78.00
17296;DHT22;8766;51.480;6.872;2023-04-03T03:59:17;3.90;78.00
17296;DHT22;8766;51.480;6.872;2023-04-03T04:01:44;4.00;78.00
17296;DHT22;8766;51.480;6.872;2023-04-03T04:04:11;3.90;78.00
17296;DHT22;8766;51.480;6.872;2023-04-03T04:06:39;3.90;78.00
17296;DHT22;8766;51.480;6.872;2023-04-03T04:09:06;3.90;78.00
17296;DHT22;8766;51.480;6.872;2023-04-03T04:11:33;3.90;78.00
17296;DHT22;8766;51.480;6.872;2023-04-03T04:14:00;3.90;78.00
17296;DHT22;8766;51.480;6.872;2023-04-03T04:16:27;3.90;78.00
17296;DHT22;8766;51.480;6.872;2023-04-03T04:18:53;3.80;78.00
17296;DHT22;8766;51.480;6.872;2023-04-03T04:21:20;3.80;78.00
17296;DHT22;8766;51.480;6.872;2023-04-03T04:23:49;3.80;78.00
17296;DHT22;8766;51.480;6.872;2023-04-03T04:26:15;3.80;78.10
17296;DHT22;8766;51.480;6.872;2023-04-03T04:28:42;3.80;78.10
17296;DHT22;8766;51.480;6.872;2023-04-03T04:31:09;3.80;78.10
17296;DHT22;8766;51.480;6.872;2023-04-03T04:33:36;3.80;78.00
17296;DHT22;8766;51.480;6.872;2023-04-03T04:36:03;3.80;78.10
17296;DHT22;8766;51.480;6.872;2023-04-03T04:38:30;3.70;78.00
17296;DHT22;8766;51.480;6.872;2023-04-03T04:40:58;3.70;78.00
17296;DHT22;8766;51.480;6.872;2023-04-03T04:43:25;3.70;78.70
17296;DHT22;8766;51.480;6.872;2023-04-03T04:46:01;3.70;78.10
17296;DHT22;8766;51.480;6.872;2023-04-03T04:48:28;3.70;78.80
17296;DHT22;8766;51.480;6.872;2023-04-03T04:50:55;3.70;78.10
17296;DHT22;8766;51.480;6.872;2023-04-03T04:53:22;3.70;78.20
17296;DHT22;8766;51.480;6.872;2023-04-03T04:55:49;3.60;78.20
17296;DHT22;8766;51.480;6.872;2023-04-03T04:58:17;3.70;78.20
17296;DHT22;8766;51.480;6.872;2023-04-03T05:00:44;3.70;78.20
17296;DHT22;8766;51.480;6.872;2023-04-03T05:03:11;3.70;78.20
17296;DHT22;8766;51.480;6.872;2023-04-03T05:05:38;3.70;78.20
17296;DHT22;8766;51.480;6.872;2023-04-03T05:08:06;3.60;78.10
17296;DHT22;8766;51.480;6.872;2023-04-03T05:10:34;3.60;78.10
17296;DHT22;8766;51.480;6.872;2023-04-03T05:13:02;3.70;78.20
17296;DHT22;8766;51.480;6.872;2023-04-03T05:15:30;3.70;78.10
17296;DHT22;8766;51.480;6.872;2023-04-03T05:17:57;3.70;78.20
17296;DHT22;8766;51.480;6.872;2023-04-03T05:20:23;3.70;78.10
17296;DHT22;8766;51.480;6.872;2023-04-03T05:22:50;3.70;78.00
17296;DHT22;8766;51.480;6.872;2023-04-03T05:25:17;3.70;78.00
17296;DHT22;8766;51.480;6.872;2023-04-03T05:27:44;3.70;78.00
17296;DHT22;8766;51.480;6.872;2023-04-03T05:30:12;3.70;78.00
17296;DHT22;8766;51.480;6.872;2023-04-03T05:32:40;3.70;77.90
17296;DHT22;8766;51.480;6.872;2023-04-03T05:35:08;3.80;77.90
17296;DHT22;8766;51.480;6.872;2023-04-03T05:37:35;3.80;77.80
17296;DHT22;8766;51.480;6.872;2023-04-03T05:40:03;3.80;77.80
17296;DHT22;8766;51.480;6.872;2023-04-03T05:42:30;3.80;77.80
17296;DHT22;8766;51.480;6.872;2023-04-03T05:44:57;3.90;77.70
17296;DHT22;8766;51.480;6.872;2023-04-03T05:47:25;3.90;77.60
17296;DHT22;8766;51.480;6.872;2023-04-03T05:49:53;3.90;77.60
17296;DHT22;8766;51.480;6.872;2023-04-03T05:52:22;4.00;77.60
17296;DHT22;8766;51.480;6.872;2023-04-03T05:54:49;4.00;77.50
17296;DHT22;8766;51.480;6.872;2023-04-03T05:57:16;4.00;77.40
17296;DHT22;8766;51.480;6.872;2023-04-03T05:59:43;4.00;77.40
17296;DHT22;8766;51.480;6.872;2023-04-03T06:02:12;4.10;77.30
17296;DHT22;8766;51.480;6.872;2023-04-03T06:04:39;4.10;77.20
17296;DHT22;8766;51.480;6.872;2023-04-03T06:07:10;4.20;77.20
17296;DHT22;8766;51.480;6.872;2023-04-03T06:09:38;4.30;77.20
17296;DHT22;8766;51.480;6.872;2023-04-03T06:12:06;4.50;76.90
17296;DHT22;8766;51.480;6.872;2023-04-03T06:14:33;4.70;76.20
17296;DHT22;8766;51.480;6.872;2023-04-03T06:17:00;4.80;75.90
17296;DHT22;8766;51.480;6.872;2023-04-03T06:19:27;5.30;76.30
17296;DHT22;8766;51.480;6.872;2023-04-03T06:21:54;7.00;72.90
17296;DHT22;8766;51.480;6.872;2023-04-03T06:24:22;8.50;69.00
17296;DHT22;8766;51.480;6.872;2023-04-03T06:26:50;10.10;65.10
17296;DHT22;8766;51.480;6.872;2023-04-03T06:29:18;11.70;61.50
17296;DHT22;8766;51.480;6.872;2023-04-03T06:31:45;13.10;58.70
17296;DHT22;8766;51.480;6.872;2023-04-03T06:34:12;14.20;56.90
17296;DHT22;8766;51.480;6.872;2023-04-03T06:36:39;15.10;55.60
17296;DHT22;8766;51.480;6.872;2023-04-03T06:39:06;16.00;54.40
17296;DHT22;8766;51.480;6.872;2023-04-03T06:41:35;16.60;53.50
17296;DHT22;8766;51.480;6.872;2023-04-03T06:44:02;17.30;52.90
17296;DHT22;8766;51.480;6.872;2023-04-03T06:46:28;17.80;52.30
17296;DHT22;8766;51.480;6.872;2023-04-03T06:48:55;18.30;51.90
17296;DHT22;8766;51.480;6.872;2023-04-03T06:51:24;18.50;51.70
17296;DHT22;8766;51.480;6.872;2023-04-03T06:53:53;19.00;51.30
17296;DHT22;8766;51.480;6.872;2023-04-03T06:56:20;19.40;51.00
17296;DHT22;8766;51.480;6.872;2023-04-03T06:58:49;19.50;51.00
17296;DHT22;8766;51.480;6.872;2023-04-03T07:01:17;19.60;51.00
17296;DHT22;8766;51.480;6.872;2023-04-03T07:03:45;20.00;50.80
17296;DHT22;8766;51.480;6.872;2023-04-03T07:06:14;20.50;50.30
17296;DHT22;8766;51.480;6.872;2023-04-03T07:08:41;20.80;49.90
17296;DHT22;8766;51.480;6.872;2023-04-03T07:11:09;20.90;49.80
17296;DHT22;8766;51.480;6.872;2023-04-03T07:13:36;21.00;49.90
17296;DHT22;8766;51.480;6.872;2023-04-03T07:16:06;21.00;50.10
17296;DHT22;8766;51.480;6.872;2023-04-03T07:18:34;21.10;50.20
17296;DHT22;8766;51.480;6.872;2023-04-03T07:21:01;21.30;50.00
17296;DHT22;8766;51.480;6.872;2023-04-03T07:23:28;21.60;49.80
17296;DHT22;8766;51.480;6.872;2023-04-03T07:25:55;22.00;49.30
17296;DHT22;8766;51.480;6.872;2023-04-03T07:28:22;22.40;48.70
17296;DHT22;8766;51.480;6.872;2023-04-03T07:30:51;22.80;48.30
17296;DHT22;8766;51.480;6.872;2023-04-03T07:33:23;22.80;48.20
17296;DHT22;8766;51.480;6.872;2023-04-03T07:35:50;22.90;48.40
17296;DHT22;8766;51.480;6.872;2023-04-03T07:38:17;22.80;48.70
17296;DHT22;8766;51.480;6.872;2023-04-03T07:40:46;22.90;48.60
17296;DHT22;8766;51.480;6.872;2023-04-03T07:43:14;22.90;48.70
17296;DHT22;8766;51.480;6.872;2023-04-03T07:45:41;23.10;48.70
17296;DHT22;8766;51.480;6.872;2023-04-03T07:48:09;23.40;48.30
17296;DHT22;8766;51.480;6.872;2023-04-03T07:50:39;23.50;48.20
17296;DHT22;8766;51.480;6.872;2023-04-03T07:53:06;23.40;48.40
17296;DHT22;8766;51.480;6.872;2023-04-03T07:55:33;23.70;48.10
17296;DHT22;8766;51.480;6.872;2023-04-03T07:58:02;23.90;47.80
17296;DHT22;8766;51.480;6.872;2023-04-03T08:00:30;24.10;47.70
17296;DHT22;8766;51.480;6.872;2023-04-03T08:02:57;23.50;48.50
17296;DHT22;8766;51.480;6.872;2023-04-03T08:05:24;21.90;51.00
17296;DHT22;8766;51.480;6.872;2023-04-03T08:07:53;20.30;53.30
17296;DHT22;8766;51.480;6.872;2023-04-03T08:10:20;18.60;56.50
17296;DHT22;8766;51.480;6.872;2023-04-03T08:12:47;17.60;58.60
17296;DHT22;8766;51.480;6.872;2023-04-03T08:15:14;17.20;59.30
17296;DHT22;8766;51.480;6.872;2023-04-03T08:17:41;16.80;60.00
17296;DHT22;8766;51.480;6.872;2023-04-03T08:20:10;17.00;59.80
17296;DHT22;8766;51.480;6.872;2023-04-03T08:22:37;17.30;58.90
17296;DHT22;8766;51.480;6.872;2023-04-03T08:25:06;17.40;58.60
17296;DHT22;8766;51.480;6.872;2023-04-03T08:27:33;17.40;58.40
17296;DHT22;8766;51.480;6.872;2023-04-03T08:30:00;17.30;58.20
17296;DHT22;8766;51.480;6.872;2023-04-03T08:32:27;17.10;58.40
17296;DHT22;8766;51.480;6.872;2023-04-03T08:34:54;17.10;58.30
17296;DHT22;8766;51.480;6.872;2023-04-03T08:37:22;17.60;57.50
17296;DHT22;8766;51.480;6.872;2023-04-03T08:39:48;18.20;56.30
17296;DHT22;8766;51.480;6.872;2023-04-03T08:42:22;18.40;55.80
17296;DHT22;8766;51.480;6.872;2023-04-03T08:44:58;18.50;55.70
17296;DHT22;8766;51.480;6.872;2023-04-03T08:47:30;18.40;55.80
17296;DHT22;8766;51.480;6.872;2023-04-03T08:50:00;18.60;55.60
17296;DHT22;8766;51.480;6.872;2023-04-03T08:52:34;18.40;56.00
17296;DHT22;8766;51.480;6.872;2023-04-03T08:55:04;18.50;55.70
17296;DHT22;8766;51.480;6.872;2023-04-03T08:57:36;19.10;55.00
17296;DHT22;8766;51.480;6.872;2023-04-03T09:00:13;20.00;53.70
17296;DHT22;8766;51.480;6.872;2023-04-03T09:02:44;21.00;52.10
17296;DHT22;8766;51.480;6.872;2023-04-03T09:05:14;21.80;50.80
17296;DHT22;8766;51.480;6.872;2023-04-03T09:07:44;22.30;50.60
17296;DHT22;8766;51.480;6.872;2023-04-03T09:10:15;22.70;49.60
17296;DHT22;8766;51.480;6.872;2023-04-03T09:12:46;23.00;49.10
17296;DHT22;8766;51.480;6.872;2023-04-03T09:15:19;23.10;49.10
17296;DHT22;8766;51.480;6.872;2023-04-03T09:17:56;23.40;48.50
17296;DHT22;8766;51.480;6.872;2023-04-03T09:20:29;23.50;48.30
17296;DHT22;8766;51.480;6.872;2023-04-03T09:22:58;23.50;48.10
17296;DHT22;8766;51.480;6.872;2023-04-03T09:25:27;23.30;48.10
17296;DHT22;8766;51.480;6.872;2023-04-03T09:27:57;23.10;48.10
17296;DHT22;8766;51.480;6.872;2023-04-03T09:30:25;22.70;48.20
17296;DHT22;8766;51.480;6.872;2023-04-03T09:32:55;22.40;48.40
17296;DHT22;8766;51.480;6.872;2023-04-03T09:35:25;21.90;48.80
17296;DHT22;8766;51.480;6.872;2023-04-03T09:37:54;21.50;49.20
17296;DHT22;8766;51.480;6.872;2023-04-03T09:40:33;21.20;49.40
17296;DHT22;8766;51.480;6.872;2023-04-03T09:43:29;20.90;49.20
17296;DHT22;8766;51.480;6.872;2023-04-03T09:46:16;20.10;49.80
17296;DHT22;8766;51.480;6.872;2023-04-03T09:48:50;18.80;52.00
17296;DHT22;8766;51.480;6.872;2023-04-03T09:51:17;17.50;54.90
17296;DHT22;8766;51.480;6.872;2023-04-03T09:53:45;16.60;56.20
17296;DHT22;8766;51.480;6.872;2023-04-03T09:56:22;15.70;57.70
17296;DHT22;8766;51.480;6.872;2023-04-03T09:58:51;14.90;59.20
17296;DHT22;8766;51.480;6.872;2023-04-03T10:01:28;14.30;60.30
17296;DHT22;8766;51.480;6.872;2023-04-03T10:04:10;13.80;61.80
17296;DHT22;8766;51.480;6.872;2023-04-03T10:06:39;13.40;62.50
17296;DHT22;8766;51.480;6.872;2023-04-03T10:09:18;13.10;63.00
17296;DHT22;8766;51.480;6.872;2023-04-03T10:12:01;12.90;63.50
17296;DHT22;8766;51.480;6.872;2023-04-03T10:14:32;12.70;63.60
17296;DHT22;8766;51.480;6.872;2023-04-03T10:17:05;12.40;64.20
17296;DHT22;8766;51.480;6.872;2023-04-03T10:19:39;12.40;64.20
17296;DHT22;8766;51.480;6.872;2023-04-03T10:22:16;12.30;64.00
17296;DHT22;8766;51.480;6.872;2023-04-03T10:24:57;12.20;64.20
17296;DHT22;8766;51.480;6.872;2023-04-03T10:27:33;12.10;64.40
17296;DHT22;8766;51.480;6.872;2023-04-03T10:30:14;12.00;64.30
17296;DHT22;8766;51.480;6.872;2023-04-03T10:32:52;12.10;64.20
17296;DHT22;8766;51.480;6.872;2023-04-03T10:35:33;12.00;64.10
17296;DHT22;8766;51.480;6.872;2023-04-03T10:38:06;11.80;64.10
17296;DHT22;8766;51.480;6.872;2023-04-03T10:40:40;11.70;64.50
17296;DHT22;8766;51.480;6.872;2023-04-03T10:43:15;11.70;64.60
17296;DHT22;8766;51.480;6.872;2023-04-03T10:45:55;11.60;64.40
17296;DHT22;8766;51.480;6.872;2023-04-03T10:48:40;11.60;64.30
17296;DHT22;8766;51.480;6.872;2023-04-03T10:51:18;11.60;64.10
17296;DHT22;8766;51.480;6.872;2023-04-03T10:53:54;11.70;64.00
17296;DHT22;8766;51.480;6.872;2023-04-03T10:56:30;11.50;63.90
17296;DHT22;8766;51.480;6.872;2023-04-03T10:59:01;11.50;64.20
17296;DHT22;8766;51.480;6.872;2023-04-03T11:01:33;11.40;64.30
17296;DHT22;8766;51.480;6.872;2023-04-03T11:04:02;11.40;64.20
17296;DHT22;8766;51.480;6.872;2023-04-03T11:07:23;11.50;64.00
17296;DHT22;8766;51.480;6.872;2023-04-03T11:10:13;11.40;63.90
17296;DHT22;8766;51.480;6.872;2023-04-03T11:12:44;11.30;64.10
17296;DHT22;8766;51.480;6.872;2023-04-03T11:15:15;11.20;64.00
17296;DHT22;8766;51.480;6.872;2023-04-03T11:17:46;11.30;64.10
17296;DHT22;8766;51.480;6.872;2023-04-03T11:20:18;11.30;63.90
17296;DHT22;8766;51.480;6.872;2023-04-03T11:22:50;11.30;63.70
17296;DHT22;8766;51.480;6.872;2023-04-03T11:25:20;11.30;63.60
17296;DHT22;8766;51.480;6.872;2023-04-03T11:27:51;11.30;63.60
17296;DHT22;8766;51.480;6.872;2023-04-03T11:30:24;11.30;63.70
17296;DHT22;8766;51.480;6.872;2023-04-03T11:33:14;11.30;63.70
17296;DHT22;8766;51.480;6.872;2023-04-03T11:35:45;11.30;63.50
17296;DHT22;8766;51.480;6.872;2023-04-03T11:38:19;11.30;63.40
17296;DHT22;8766;51.480;6.872;2023-04-03T11:40:47;11.30;63.40
17296;DHT22;8766;51.480;6.872;2023-04-03T11:43:22;11.20;63.30
17296;DHT22;8766;51.480;6.872;2023-04-03T11:45:54;11.20;63.40
17296;DHT22;8766;51.480;6.872;2023-04-03T11:48:55;11.30;63.30
17296;DHT22;8766;51.480;6.872;2023-04-03T11:51:39;11.30;63.10
17296;DHT22;8766;51.480;6.872;2023-04-03T11:54:35;11.30;63.10
17296;DHT22;8766;51.480;6.872;2023-04-03T12:09:27;11.20;62.70
17296;DHT22;8766;51.480;6.872;2023-04-03T12:11:56;11.20;62.70
17296;DHT22;8766;51.480;6.872;2023-04-03T12:14:24;11.20;62.70
17296;DHT22;8766;51.480;6.872;2023-04-03T12:16:53;11.20;62.70
17296;DHT22;8766;51.480;6.872;2023-04-03T12:19:35;11.20;62.60
17296;DHT22;8766;51.480;6.872;2023-04-03T12:22:20;11.20;62.50
17296;DHT22;8766;51.480;6.872;2023-04-03T12:24:49;11.30;62.40
17296;DHT22;8766;51.480;6.872;2023-04-03T12:27:26;11.30;62.20
17296;DHT22;8766;51.480;6.872;2023-04-03T12:29:58;11.30;62.10
17296;DHT22;8766;51.480;6.872;2023-04-03T12:32:37;11.40;62.10
17296;DHT22;8766;51.480;6.872;2023-04-03T12:35:17;11.40;62.00
17296;DHT22;8766;51.480;6.872;2023-04-03T12:38:15;11.40;61.80
17296;DHT22;8766;51.480;6.872;2023-04-03T12:40:48;11.40;61.80
17296;DHT22;8766;51.480;6.872;2023-04-03T12:43:33;11.40;61.80
17296;DHT22;8766;51.480;6.872;2023-04-03T12:46:07;11.40;61.80
17296;DHT22;8766;51.480;6.872;2023-04-03T12:48:46;11.40;61.70
17296;DHT22;8766;51.480;6.872;2023-04-03T12:51:14;11.50;61.60
17296;DHT22;8766;51.480;6.872;2023-04-03T12:53:43;11.40;61.50
17296;DHT22;8766;51.480;6.872;2023-04-03T12:56:24;11.40;61.50
17296;DHT22;8766;51.480;6.872;2023-04-03T12:58:52;11.50;61.50
17296;DHT22;8766;51.480;6.872;2023-04-03T13:01:24;11.50;61.40
17296;DHT22;8766;51.480;6.872;2023-04-03T13:03:53;11.50;61.20
17296;DHT22;8766;51.480;6.872;2023-04-03T13:06:22;11.50;61.10
17296;DHT22;8766;51.480;6.872;2023-04-03T13:08:51;11.50;61.20
17296;DHT22;8766;51.480;6.872;2023-04-03T13:11:21;11.50;61.20
17296;DHT22;8766;51.480;6.872;2023-04-03T13:13:58;11.40;61.20
17296;DHT22;8766;51.480;6.872;2023-04-03T13:16:26;11.40;61.30
17296;DHT22;8766;51.480;6.872;2023-04-03T13:18:53;11.40;61.20
17296;DHT22;8766;51.480;6.872;2023-04-03T13:21:23;11.40;61.10
17296;DHT22;8766;51.480;6.872;2023-04-03T13:23:52;11.40;61.00
17296;DHT22;8766;51.480;6.872;2023-04-03T13:26:25;11.50;61.00
17296;DHT22;8766;51.480;6.872;2023-04-03T13:28:53;11.40;60.90
17296;DHT22;8766;51.480;6.872;2023-04-03T13:31:25;11.40;61.00
17296;DHT22;8766;51.480;6.872;2023-04-03T13:33:56;11.40;61.00
17296;DHT22;8766;51.480;6.872;2023-04-03T13:36:27;11.50;60.70
17296;DHT22;8766;51.480;6.872;2023-04-03T13:39:02;11.60;60.50
17296;DHT22;8766;51.480;6.872;2023-04-03T13:41:32;11.70;60.30
17296;DHT22;8766;51.480;6.872;2023-04-03T13:44:29;11.70;60.10
17296;DHT22;8766;51.480;6.872;2023-04-03T13:46:58;11.70;60.10
17296;DHT22;8766;51.480;6.872;2023-04-03T13:49:31;11.70;60.00
17296;DHT22;8766;51.480;6.872;2023-04-03T13:51:59;11.80;60.00
17296;DHT22;8766;51.480;6.872;2023-04-03T13:54:31;11.70;60.00
17296;DHT22;8766;51.480;6.872;2023-04-03T13:57:01;11.60;60.10
17296;DHT22;8766;51.480;6.872;2023-04-03T13:59:32;11.60;60.30
17296;DHT22;8766;51.480;6.872;2023-04-03T14:02:21;11.60;60.20
17296;DHT22;8766;51.480;6.872;2023-04-03T14:04:51;11.60;60.10
17296;DHT22;8766;51.480;6.872;2023-04-03T14:07:22;11.60;60.00
17296;DHT22;8766;51.480;6.872;2023-04-03T14:09:49;11.60;60.10
17296;DHT22;8766;51.480;6.872;2023-04-03T14:12:24;11.60;60.00
17296;DHT22;8766;51.480;6.872;2023-04-03T14:14:53;11.70;60.00
17296;DHT22;8766;51.480;6.872;2023-04-03T14:17:23;11.70;59.80
17296;DHT22;8766;51.480;6.872;2023-04-03T14:19:50;11.80;59.70
17296;DHT22;8766;51.480;6.872;2023-04-03T14:22:20;11.90;59.60
17296;DHT22;8766;51.480;6.872;2023-04-03T14:24:48;11.90;59.50
17296;DHT22;8766;51.480;6.872;2023-04-03T14:27:20;11.90;59.40
17296;DHT22;8766;51.480;6.872;2023-04-03T14:29:49;11.90;60.00
17296;DHT22;8766;51.480;6.872;2023-04-03T14:32:18;11.90;59.50
17296;DHT22;8766;51.480;6.872;2023-04-03T14:34:46;11.90;59.40
17296;DHT22;8766;51.480;6.872;2023-04-03T14:37:16;11.90;59.40
17296;DHT22;8766;51.480;6.872;2023-04-03T14:39:45;11.90;59.40
17296;DHT22;8766;51.480;6.872;2023-04-03T14:42:15;11.90;59.30
17296;DHT22;8766;51.480;6.872;2023-04-03T14:44:44;11.90;59.30
17296;DHT22;8766;51.480;6.872;2023-04-03T14:47:12;11.90;59.90
17296;DHT22;8766;51.480;6.872;2023-04-03T14:49:41;12.00;59.30
17296;DHT22;8766;51.480;6.872;2023-04-03T14:52:18;12.00;59.20
17296;DHT22;8766;51.480;6.872;2023-04-03T14:54:45;11.90;59.20
17296;DHT22;8766;51.480;6.872;2023-04-03T14:57:13;11.90;59.20
17296;DHT22;8766;51.480;6.872;2023-04-03T14:59:43;12.00;59.20
17296;DHT22;8766;51.480;6.872;2023-04-03T15:02:24;12.00;59.20
17296;DHT22;8766;51.480;6.872;2023-04-03T15:04:53;12.10;59.10
17296;DHT22;8766;51.480;6.872;2023-04-03T15:07:20;12.00;59.00
17296;DHT22;8766;51.480;6.872;2023-04-03T15:09:47;12.00;59.00
17296;DHT22;8766;51.480;6.872;2023-04-03T15:12:15;12.00;59.10
17296;DHT22;8766;51.480;6.872;2023-04-03T15:14:41;12.00;59.10
17296;DHT22;8766;51.480;6.872;2023-04-03T15:17:14;11.90;59.10
17296;DHT22;8766;51.480;6.872;2023-04-03T15:19:43;11.90;59.10
17296;DHT22;8766;51.480;6.872;2023-04-03T15:22:13;11.90;59.10
17296;DHT22;8766;51.480;6.872;2023-04-03T15:24:40;11.90;59.00
17296;DHT22;8766;51.480;6.872;2023-04-03T15:27:07;11.90;59.00
17296;DHT22;8766;51.480;6.872;2023-04-03T15:29:34;11.80;59.10
17296;DHT22;8766;51.480;6.872;2023-04-03T15:32:01;11.80;59.30
17296;DHT22;8766;51.480;6.872;2023-04-03T15:34:30;11.70;59.40
17296;DHT22;8766;51.480;6.872;2023-04-03T15:36:57;11.70;59.30
17296;DHT22;8766;51.480;6.872;2023-04-03T15:39:25;11.80;59.20
17296;DHT22;8766;51.480;6.872;2023-04-03T15:41:52;11.80;59.20
17296;DHT22;8766;51.480;6.872;2023-04-03T15:44:19;11.70;59.20
17296;DHT22;8766;51.480;6.872;2023-04-03T15:46:47;11.80;59.20
17296;DHT22;8766;51.480;6.872;2023-04-03T15:49:16;11.70;59.20
17296;DHT22;8766;51.480;6.872;2023-04-03T15:51:45;11.60;59.30
17296;DHT22;8766;51.480;6.872;2023-04-03T15:54:12;11.60;59.40
17296;DHT22;8766;51.480;6.872;2023-04-03T15:56:39;11.60;59.30
17296;DHT22;8766;51.480;6.872;2023-04-03T15:59:05;11.60;59.20
17296;DHT22;8766;51.480;6.872;2023-04-03T16:01:32;11.50;59.30
17296;DHT22;8766;51.480;6.872;2023-04-03T16:04:00;11.50;59.40
17296;DHT22;8766;51.480;6.872;2023-04-03T16:06:27;11.50;59.50
17296;DHT22;8766;51.480;6.872;2023-04-03T16:08:57;11.50;59.40
17296;DHT22;8766;51.480;6.872;2023-04-03T16:11:25;11.50;59.50
17296;DHT22;8766;51.480;6.872;2023-04-03T16:13:52;11.40;59.50
17296;DHT22;8766;51.480;6.872;2023-04-03T16:16:19;11.30;59.60
17296;DHT22;8766;51.480;6.872;2023-04-03T16:18:46;11.30;60.40
17296;DHT22;8766;51.480;6.872;2023-04-03T16:21:14;11.20;59.90
17296;DHT22;8766;51.480;6.872;2023-04-03T16:23:42;11.10;60.00
17296;DHT22;8766;51.480;6.872;2023-04-03T16:26:10;11.00;60.20